createdAt,value
2018-09-22T00:00:14.787Z,68.90
2018-09-22T00:02:45.034Z,69.40
2018-09-22T00:05:15.247Z,69.50
2018-09-22T00:07:45.441Z,70.60
2018-09-22T00:10:15.614Z,69.00
2018-09-22T00:12:45.863Z,69.30
2018-09-22T00:15:16.224Z,69.90
2018-09-22T00:17:46.618Z,69.30
2018-09-22T00:20:16.861Z,69.00
2018-09-22T00:22:47.217Z,69.50
2018-09-22T00:25:17.446Z,69.10
2018-09-22T00:27:47.817Z,69.40
2018-09-22T00:30:18.064Z,69.40
2018-09-22T00:32:48.415Z,70.00
2018-09-22T00:35:18.901Z,69.20
2018-09-22T00:37:49.121Z,69.50
2018-09-22T00:40:19.278Z,69.70
2018-09-22T00:42:49.581Z,69.10
2018-09-22T00:45:19.822Z,69.10
2018-09-22T00:47:51.541Z,69.90
2018-09-22T00:50:21.863Z,67.80
2018-09-22T00:52:52.014Z,69.30
2018-09-22T00:55:22.267Z,69.60
2018-09-22T00:57:52.683Z,69.60
2018-09-22T01:00:22.961Z,69.80
2018-09-22T01:02:53.234Z,68.90
2018-09-22T01:05:23.423Z,69.20
2018-09-22T01:07:53.966Z,70.00
2018-09-22T01:10:24.200Z,69.70
2018-09-22T01:12:54.353Z,69.50
2018-09-22T01:15:24.641Z,69.20
2018-09-22T01:17:55.034Z,70.20
2018-09-22T01:20:25.285Z,69.70
2018-09-22T01:22:55.814Z,69.90
2018-09-22T01:25:26.196Z,69.90
2018-09-22T01:27:56.438Z,69.90
2018-09-22T01:30:26.668Z,70.70
2018-09-22T01:32:57.573Z,70.00
2018-09-22T01:35:27.879Z,70.80
2018-09-22T01:37:58.152Z,70.70
2018-09-22T01:40:28.464Z,70.50
2018-09-22T01:42:58.933Z,70.60
2018-09-22T01:45:29.336Z,70.80
2018-09-22T01:47:59.678Z,71.00
2018-09-22T01:50:29.790Z,71.00
2018-09-22T01:52:59.981Z,71.10
2018-09-22T01:55:30.244Z,70.50
2018-09-22T01:58:00.445Z,71.30
2018-09-22T02:00:30.685Z,71.20
2018-09-22T02:03:12.870Z,71.60
2018-09-22T02:05:43.183Z,71.90
2018-09-22T02:08:13.498Z,71.20
2018-09-22T02:10:43.839Z,71.60
2018-09-22T02:13:14.095Z,71.60
2018-09-22T02:15:44.484Z,70.70
2018-09-22T02:18:14.815Z,71.10
2018-09-22T02:20:46.934Z,71.00
2018-09-22T02:23:17.333Z,72.00
2018-09-22T02:25:47.611Z,72.00
2018-09-22T02:28:17.863Z,70.90
2018-09-22T02:30:48.224Z,70.50
2018-09-22T02:33:18.525Z,70.80
2018-09-22T02:35:48.735Z,70.90
2018-09-22T02:38:18.938Z,71.20
2018-09-22T02:40:49.095Z,71.00
2018-09-22T02:43:19.255Z,71.50
2018-09-22T02:45:49.705Z,71.10
2018-09-22T02:48:19.965Z,72.00
2018-09-22T02:50:50.245Z,71.90
2018-09-22T02:53:20.583Z,71.70
2018-09-22T02:55:50.802Z,72.00
2018-09-22T02:58:21.034Z,72.20
2018-09-22T03:00:51.150Z,72.10
2018-09-22T03:03:21.510Z,72.40
2018-09-22T03:05:51.730Z,72.50
2018-09-22T03:08:21.979Z,72.40
2018-09-22T03:10:52.378Z,72.70
2018-09-22T03:13:22.565Z,72.20
2018-09-22T03:15:52.907Z,72.50
2018-09-22T03:18:23.173Z,72.80
2018-09-22T03:20:54.650Z,72.30
2018-09-22T03:23:25.612Z,72.60
2018-09-22T03:25:55.914Z,72.10
2018-09-22T03:28:26.844Z,72.10
2018-09-22T03:30:57.197Z,72.10
2018-09-22T03:33:27.313Z,72.90
2018-09-22T03:35:57.569Z,72.50
2018-09-22T03:38:27.702Z,72.90
2018-09-22T03:40:57.803Z,72.90
2018-09-22T03:43:28.079Z,73.50
2018-09-22T03:45:58.313Z,72.50
2018-09-22T03:48:28.455Z,72.80
2018-09-22T03:50:58.719Z,72.80
2018-09-22T03:53:29.110Z,72.50
2018-09-22T03:55:59.331Z,72.10
2018-09-22T03:58:29.517Z,72.50
2018-09-22T04:00:59.958Z,73.00
2018-09-22T04:03:30.074Z,72.40
2018-09-22T04:06:00.365Z,73.10
2018-09-22T04:08:30.576Z,73.00
2018-09-22T04:11:00.854Z,72.60
2018-09-22T04:13:31.080Z,73.40
2018-09-22T04:16:01.346Z,72.50
2018-09-22T04:18:31.592Z,72.10
2018-09-22T04:21:01.841Z,72.50
2018-09-22T04:23:32.070Z,72.50
2018-09-22T04:26:02.355Z,73.70
2018-09-22T04:28:32.523Z,72.80
2018-09-22T04:31:03.394Z,72.00
2018-09-22T04:33:33.706Z,72.80
2018-09-22T04:36:03.975Z,72.90
2018-09-22T04:38:34.188Z,73.20
2018-09-22T04:41:04.553Z,72.70
2018-09-22T04:43:35.048Z,73.10
2018-09-22T04:46:05.387Z,73.20
2018-09-22T04:48:35.626Z,72.80
2018-09-22T04:51:06.122Z,72.80
2018-09-22T04:53:36.458Z,72.80
2018-09-22T04:56:06.747Z,72.50
2018-09-22T04:58:37.058Z,72.70
2018-09-22T05:01:07.887Z,72.80
2018-09-22T05:03:38.149Z,72.50
2018-09-22T05:06:08.543Z,72.30
2018-09-22T05:08:38.707Z,72.50
2018-09-22T05:11:08.975Z,72.30
2018-09-22T05:13:39.188Z,72.20
2018-09-22T05:16:09.600Z,72.40
2018-09-22T05:18:39.795Z,72.50
2018-09-22T05:21:10.377Z,72.40
2018-09-22T05:23:40.557Z,72.70
2018-09-22T05:26:10.907Z,72.40
2018-09-22T05:28:41.204Z,72.70
2018-09-22T05:31:11.559Z,72.60
2018-09-22T05:33:41.833Z,72.90
2018-09-22T05:36:12.187Z,72.80
2018-09-22T05:38:42.413Z,72.50
2018-09-22T05:41:12.688Z,72.50
2018-09-22T05:43:43.070Z,72.60
2018-09-22T05:46:13.331Z,72.80
2018-09-22T05:48:43.652Z,72.70
2018-09-22T05:51:13.948Z,72.80
2018-09-22T05:53:44.116Z,72.70
2018-09-22T05:56:14.306Z,73.00
2018-09-22T05:58:44.429Z,72.80
2018-09-22T06:01:14.729Z,72.70
2018-09-22T06:03:44.992Z,73.20
2018-09-22T06:06:15.156Z,73.20
2018-09-22T06:08:45.270Z,73.10
2018-09-22T06:11:15.477Z,73.00
2018-09-22T06:13:45.661Z,73.10
2018-09-22T06:16:15.947Z,73.10
2018-09-22T06:18:46.208Z,73.10
2018-09-22T06:21:16.476Z,73.10
2018-09-22T06:23:46.731Z,73.30
2018-09-22T06:26:16.971Z,73.10
2018-09-22T06:28:47.137Z,73.20
2018-09-22T06:31:17.528Z,73.50
2018-09-22T06:33:47.664Z,73.70
2018-09-22T06:36:17.944Z,73.50
2018-09-22T06:38:48.079Z,73.60
2018-09-22T06:41:18.435Z,73.60
2018-09-22T06:43:48.887Z,73.50
2018-09-22T06:46:19.218Z,73.40
2018-09-22T06:48:49.444Z,73.30
2018-09-22T06:51:19.631Z,73.70
2018-09-22T06:53:49.914Z,73.70
2018-09-22T06:56:20.066Z,74.10
2018-09-22T06:58:50.369Z,74.30
2018-09-22T07:01:20.567Z,74.50
2018-09-22T07:03:50.769Z,74.00
2018-09-22T07:06:21.009Z,74.30
2018-09-22T07:08:51.181Z,74.20
2018-09-22T07:11:21.384Z,74.30
2018-09-22T07:13:51.784Z,74.10
2018-09-22T07:16:21.867Z,74.10
2018-09-22T07:18:51.947Z,74.30
2018-09-22T07:22:26.917Z,74.30
2018-09-22T07:24:57.046Z,74.10
2018-09-22T07:27:27.369Z,74.50
2018-09-22T07:29:57.584Z,73.80
2018-09-22T07:32:27.686Z,73.70
2018-09-22T07:34:57.966Z,73.70
2018-09-22T07:37:28.214Z,73.40
2018-09-22T07:39:58.276Z,73.50
2018-09-22T07:42:28.388Z,73.30
2018-09-22T07:44:58.637Z,72.90
2018-09-22T07:47:28.897Z,72.80
2018-09-22T07:49:59.262Z,72.50
2018-09-22T07:52:29.672Z,72.30
2018-09-22T07:54:59.569Z,72.10
2018-09-22T07:57:29.775Z,72.20
2018-09-22T07:59:59.890Z,71.40
2018-09-22T08:02:29.910Z,71.20
2018-09-22T08:04:59.788Z,71.10
2018-09-22T08:07:29.763Z,71.00
2018-09-22T08:09:59.805Z,70.80
2018-09-22T08:12:30.123Z,70.60
2018-09-22T08:15:00.055Z,70.90
2018-09-22T08:17:29.991Z,70.70
2018-09-22T08:19:59.945Z,70.40
2018-09-22T08:22:29.880Z,70.20
2018-09-22T08:24:59.849Z,70.00
2018-09-22T08:27:29.862Z,70.20
2018-09-22T08:29:59.811Z,70.10
2018-09-22T08:32:29.950Z,70.00
2018-09-22T08:35:00.148Z,69.80
2018-09-22T08:37:30.148Z,69.70
2018-09-22T08:40:00.123Z,69.70
2018-09-22T08:42:30.046Z,69.40
2018-09-22T08:44:59.967Z,69.40
2018-09-22T08:47:29.887Z,69.30
2018-09-22T08:49:59.818Z,69.30
2018-09-22T08:52:29.770Z,69.20
2018-09-22T08:55:00.024Z,68.50
2018-09-22T08:57:29.900Z,68.20
2018-09-22T08:59:59.820Z,68.20
2018-09-22T09:02:29.799Z,67.40
2018-09-22T09:04:59.784Z,67.30
2018-09-22T09:07:29.779Z,67.30
2018-09-22T09:09:59.771Z,67.20
2018-09-22T09:12:29.812Z,67.10
2018-09-22T09:14:59.832Z,66.80
2018-09-22T09:17:29.750Z,66.40
2018-09-22T09:19:59.791Z,66.20
2018-09-22T09:22:29.714Z,66.30
2018-09-22T09:24:59.650Z,66.30
2018-09-22T09:27:29.770Z,66.20
2018-09-22T09:29:59.790Z,66.40
2018-09-22T09:32:29.830Z,66.10
2018-09-22T09:34:59.830Z,66.30
2018-09-22T09:37:29.983Z,66.00
2018-09-22T09:39:59.979Z,66.70
2018-09-22T09:42:30.644Z,65.80
2018-09-22T09:45:00.792Z,65.50
2018-09-22T09:47:30.863Z,65.10
2018-09-22T09:50:00.804Z,65.50
2018-09-22T09:52:30.802Z,64.50
2018-09-22T09:55:00.926Z,64.30
2018-09-22T09:57:30.890Z,63.80
2018-09-22T10:00:01.170Z,63.70
2018-09-22T10:02:31.108Z,63.60
2018-09-22T10:05:01.190Z,63.10
2018-09-22T10:07:31.161Z,62.70
2018-09-22T10:10:01.192Z,62.70
2018-09-22T10:12:32.594Z,62.20
2018-09-22T10:15:05.790Z,61.80
2018-09-22T10:17:38.959Z,61.50
2018-09-22T10:20:12.857Z,61.20
2018-09-22T10:23:21.530Z,60.50
2018-09-22T10:25:54.530Z,60.60
2018-09-22T10:28:28.180Z,59.80
2018-09-22T10:30:59.858Z,59.40
2018-09-22T10:33:30.244Z,59.10
2018-09-22T10:36:00.677Z,59.00
2018-09-22T10:38:40.707Z,58.30
2018-09-22T10:41:11.375Z,57.80
2018-09-22T10:43:43.192Z,57.20
2018-09-22T10:46:13.449Z,57.00
2018-09-22T10:48:44.689Z,56.90
2018-09-22T10:51:16.167Z,57.40
2018-09-22T10:53:46.770Z,56.90
2018-09-22T10:56:17.683Z,56.80
2018-09-22T10:58:47.977Z,55.80
2018-09-22T11:01:18.305Z,56.30
2018-09-22T11:03:50.280Z,55.70
2018-09-22T11:06:21.314Z,54.90
2018-09-22T11:08:51.417Z,55.00
2018-09-22T11:11:21.642Z,55.40
2018-09-22T11:13:52.088Z,55.20
2018-09-22T11:16:22.422Z,55.20
2018-09-22T11:18:52.876Z,54.80
2018-09-22T11:21:23.219Z,54.80
2018-09-22T11:23:53.435Z,53.80
2018-09-22T11:26:23.742Z,54.10
2018-09-22T11:28:54.116Z,53.80
2018-09-22T11:31:25.556Z,54.50
2018-09-22T11:33:57.321Z,54.30
2018-09-22T11:36:31.178Z,54.30
2018-09-22T11:39:03.440Z,54.00
2018-09-22T11:41:33.825Z,54.00
2018-09-22T11:44:04.453Z,53.20
2018-09-22T11:46:36.380Z,52.90
2018-09-22T11:49:06.722Z,52.70
2018-09-22T11:51:37.074Z,53.30
2018-09-22T11:54:07.392Z,52.80
2018-09-22T11:56:37.595Z,52.70
2018-09-22T11:59:07.795Z,52.90
2018-09-22T12:01:39.313Z,52.40
2018-09-22T12:04:09.650Z,52.50
2018-09-22T12:06:40.109Z,52.00
2018-09-22T12:09:12.272Z,52.00
2018-09-22T12:11:42.624Z,51.70
2018-09-22T12:14:13.015Z,51.50
2018-09-22T12:16:43.338Z,51.20
2018-09-22T12:19:13.602Z,51.40
2018-09-22T12:21:43.930Z,51.50
2018-09-22T12:24:14.163Z,51.90
2018-09-22T12:26:44.509Z,51.70
2018-09-22T12:29:14.641Z,51.40
2018-09-22T12:31:45.439Z,51.70
2018-09-22T12:34:15.643Z,51.80
2018-09-22T12:36:52.623Z,51.50
2018-09-22T12:39:22.828Z,51.30
2018-09-22T12:41:53.524Z,50.90
2018-09-22T12:44:23.712Z,50.70
2018-09-22T12:46:54.004Z,51.00
2018-09-22T12:49:24.238Z,50.90
2018-09-22T12:51:55.381Z,51.10
2018-09-22T12:54:25.450Z,51.40
2018-09-22T12:56:55.555Z,51.30
2018-09-22T12:59:26.115Z,51.10
2018-09-22T13:01:56.235Z,50.60
2018-09-22T13:04:26.438Z,50.60
2018-09-22T13:06:56.671Z,50.60
2018-09-22T13:09:32.542Z,50.70
2018-09-22T13:12:05.641Z,50.90
2018-09-22T13:14:35.995Z,51.10
2018-09-22T13:17:06.241Z,50.90
2018-09-22T13:19:37.520Z,51.30
2018-09-22T13:22:07.741Z,51.20
2018-09-22T13:24:37.935Z,51.20
2018-09-22T13:27:08.840Z,51.40
2018-09-22T13:29:39.063Z,51.40
2018-09-22T13:32:09.325Z,51.30
2018-09-22T13:34:43.417Z,51.30
2018-09-22T13:37:13.756Z,51.60
2018-09-22T13:39:44.085Z,51.80
2018-09-22T13:42:16.098Z,51.70
2018-09-22T13:51:37.372Z,51.80
2018-09-22T13:57:23.614Z,52.10
2018-09-22T13:59:56.027Z,52.40
2018-09-22T14:02:27.493Z,52.30
2018-09-22T14:04:57.570Z,52.60
2018-09-22T14:07:28.074Z,52.60
2018-09-22T14:09:58.688Z,52.60
2018-09-22T14:12:29.059Z,52.50
2018-09-22T14:14:59.447Z,52.40
2018-09-22T14:17:30.074Z,52.20
2018-09-22T14:20:00.356Z,52.00
2018-09-22T14:22:30.509Z,51.90
2018-09-22T14:25:00.673Z,51.40
2018-09-22T14:27:31.288Z,51.10
2018-09-22T14:30:01.511Z,51.80
2018-09-22T14:32:31.821Z,51.20
2018-09-22T14:35:05.085Z,51.00
2018-09-22T14:37:35.187Z,50.80
2018-09-22T14:40:06.476Z,51.40
2018-09-22T14:42:37.156Z,51.40
2018-09-22T14:45:09.407Z,51.50
2018-09-22T14:47:41.797Z,51.60
2018-09-22T14:50:11.902Z,51.70
2018-09-22T14:52:42.029Z,51.80
2018-09-22T14:55:13.307Z,52.60
2018-09-22T14:57:43.454Z,52.30
2018-09-22T15:00:16.275Z,52.70
2018-09-22T15:02:48.192Z,53.10
2018-09-22T15:05:18.329Z,53.70
2018-09-22T15:07:48.386Z,53.90
2018-09-22T15:10:18.557Z,54.10
2018-09-22T15:12:48.586Z,54.30
2018-09-22T15:15:21.490Z,54.40
2018-09-22T15:17:51.670Z,54.60
2018-09-22T15:20:21.911Z,55.00
2018-09-22T15:22:53.059Z,56.00
2018-09-22T15:25:23.288Z,56.70
2018-09-22T15:27:53.406Z,57.30
2018-09-22T15:30:23.627Z,58.20
2018-09-22T15:32:54.446Z,58.30
2018-09-22T15:35:24.961Z,59.00
2018-09-22T15:37:55.074Z,59.70
2018-09-22T15:40:25.306Z,60.10
2018-09-22T15:42:55.435Z,60.60
2018-09-22T15:45:25.668Z,61.10
2018-09-22T15:47:56.714Z,61.10
2018-09-22T15:50:27.947Z,61.20
2018-09-22T15:52:58.108Z,62.60
2018-09-22T15:55:28.280Z,62.20
2018-09-22T15:57:58.386Z,62.70
2018-09-22T16:00:33.092Z,63.20
2018-09-22T16:03:03.171Z,62.70
2018-09-22T16:05:33.324Z,61.80
2018-09-22T16:08:03.405Z,62.90
2018-09-22T16:10:33.944Z,63.20
2018-09-22T16:13:05.255Z,63.70
2018-09-22T16:15:35.750Z,63.10
2018-09-22T16:18:06.293Z,63.30
2018-09-22T16:20:37.331Z,63.30
2018-09-22T16:23:08.197Z,63.10
2018-09-22T16:25:38.416Z,63.30
2018-09-22T16:28:08.513Z,62.60
2018-09-22T16:30:45.209Z,63.30
2018-09-22T16:33:15.492Z,63.90
2018-09-22T16:35:45.648Z,64.10
2018-09-22T16:38:15.773Z,63.80
2018-09-22T16:40:45.936Z,64.60
2018-09-22T16:43:16.303Z,64.80
2018-09-22T16:45:46.428Z,65.20
2018-09-22T16:48:16.586Z,65.10
2018-09-22T16:50:46.847Z,65.30
2018-09-22T16:53:17.001Z,66.30
2018-09-22T16:55:47.123Z,66.20
2018-09-22T16:58:23.750Z,65.80
2018-09-22T17:00:54.159Z,65.80
2018-09-22T17:03:24.265Z,66.60
2018-09-22T17:05:54.470Z,66.80
2018-09-22T17:08:24.594Z,66.80
2018-09-22T17:10:54.772Z,67.00
2018-09-22T17:13:24.961Z,67.70
2018-09-22T17:15:55.250Z,67.90
2018-09-22T17:18:25.353Z,69.00
2018-09-22T17:20:55.565Z,67.90
2018-09-22T17:23:26.001Z,68.60
2018-09-22T17:25:56.226Z,68.40
2018-09-22T17:28:26.355Z,67.90
2018-09-22T17:30:56.566Z,68.60
2018-09-22T17:33:26.673Z,68.40
2018-09-22T17:35:56.827Z,68.90
2018-09-22T17:38:27.019Z,68.70
2018-09-22T17:40:57.840Z,68.80
2018-09-22T17:43:28.016Z,68.80
2018-09-22T17:45:58.518Z,69.10
2018-09-22T17:48:28.646Z,69.60
2018-09-22T17:50:59.049Z,69.60
2018-09-22T17:53:29.300Z,70.10
2018-09-22T17:55:59.471Z,69.80
2018-09-22T17:58:29.630Z,69.90
2018-09-22T18:00:59.790Z,70.10
2018-09-22T18:03:30.027Z,70.10
2018-09-22T18:06:00.332Z,70.80
2018-09-22T18:08:30.474Z,70.60
2018-09-22T18:11:00.651Z,71.00
2018-09-22T18:13:30.790Z,70.80
2018-09-22T18:16:01.254Z,71.20
2018-09-22T18:18:31.440Z,70.90
2018-09-22T18:21:01.657Z,71.10
2018-09-22T18:23:31.774Z,71.70
2018-09-22T18:26:02.014Z,71.70
2018-09-22T18:28:32.134Z,71.50
2018-09-22T18:31:02.400Z,71.70
2018-09-22T18:33:32.645Z,72.00
2018-09-22T18:36:02.801Z,72.00
2018-09-22T18:38:32.904Z,72.10
2018-09-22T18:41:03.019Z,72.50
2018-09-22T18:43:33.180Z,72.30
2018-09-22T18:46:03.338Z,72.80
2018-09-22T18:48:33.430Z,72.60
2018-09-22T18:51:03.610Z,72.40
2018-09-22T18:53:33.718Z,73.00
2018-09-22T18:56:04.070Z,72.60
2018-09-22T18:58:34.215Z,72.40
2018-09-22T19:01:04.452Z,73.00
2018-09-22T19:03:34.549Z,73.20
2018-09-22T19:06:04.723Z,73.10
2018-09-22T19:08:34.927Z,73.00
2018-09-22T19:11:05.116Z,73.20
2018-09-22T19:13:41.972Z,73.10
2018-09-22T19:16:22.918Z,73.70
2018-09-22T19:18:57.270Z,73.90
2018-09-22T19:21:44.995Z,74.10
2018-09-22T19:24:20.082Z,72.80
2018-09-22T19:26:54.477Z,74.30
2018-09-22T19:29:31.567Z,74.40
2018-09-22T19:32:24.635Z,74.50
2018-09-22T19:34:59.113Z,75.10
2018-09-22T19:37:33.010Z,75.10
2018-09-22T19:40:13.743Z,75.10
2018-09-22T19:42:47.852Z,75.10
2018-09-22T19:45:28.288Z,75.40
2018-09-22T19:48:03.491Z,75.10
2018-09-22T19:50:42.303Z,75.40
2018-09-22T19:53:12.493Z,75.90
2018-09-22T19:55:42.625Z,76.20
2018-09-22T19:58:12.792Z,76.20
2018-09-22T20:00:42.822Z,76.20
2018-09-22T20:03:13.021Z,76.40
2018-09-22T20:05:43.144Z,76.40
2018-09-22T20:08:13.287Z,76.90
2018-09-22T20:10:43.370Z,76.40
2018-09-22T20:13:13.549Z,76.70
2018-09-22T20:15:43.658Z,75.90
2018-09-22T20:18:13.790Z,76.10
2018-09-22T20:20:43.870Z,76.50
2018-09-22T20:23:14.065Z,76.60
2018-09-22T20:25:44.231Z,76.50
2018-09-22T20:28:14.399Z,76.30
2018-09-22T20:30:44.504Z,75.60
2018-09-22T20:33:14.735Z,76.00
2018-09-22T20:35:44.812Z,76.30
2018-09-22T20:38:14.995Z,76.60
2018-09-22T20:40:45.147Z,76.50
2018-09-22T20:43:15.262Z,76.70
2018-09-22T20:45:45.379Z,77.10
2018-09-22T20:48:15.486Z,77.40
2018-09-22T20:50:45.552Z,77.50
2018-09-22T20:53:15.655Z,77.70
2018-09-22T20:55:45.771Z,77.40
2018-09-22T20:58:15.939Z,77.20
2018-09-22T21:00:46.105Z,77.40
2018-09-22T21:03:16.211Z,77.50
2018-09-22T21:05:46.322Z,77.40
2018-09-22T21:08:16.429Z,77.70
2018-09-22T21:10:46.499Z,77.80
2018-09-22T21:13:16.631Z,78.50
2018-09-22T21:15:46.803Z,78.90
2018-09-22T21:18:17.022Z,77.80
2018-09-22T21:20:47.146Z,77.90
2018-09-22T21:23:17.267Z,78.40
2018-09-22T21:25:47.365Z,78.30
2018-09-22T21:28:17.890Z,78.30
2018-09-22T21:30:48.116Z,78.70
2018-09-22T21:33:18.668Z,78.40
2018-09-22T21:35:48.791Z,78.40
2018-09-22T21:38:18.939Z,78.50
2018-09-22T21:40:49.066Z,79.40
2018-09-22T21:43:19.392Z,78.90
2018-09-22T21:45:49.667Z,78.80
2018-09-22T21:48:19.773Z,79.60
2018-09-22T21:50:49.934Z,78.80
2018-09-22T21:53:20.105Z,79.00
2018-09-22T21:55:50.309Z,79.90
2018-09-22T21:58:20.576Z,79.30
2018-09-22T22:00:52.483Z,79.30
2018-09-22T22:03:24.243Z,79.80
2018-09-22T22:05:54.360Z,80.30
2018-09-22T22:08:24.639Z,80.50
2018-09-22T22:10:54.803Z,80.70
2018-09-22T22:13:25.029Z,80.80
2018-09-22T22:15:55.152Z,81.00
2018-09-22T22:18:25.329Z,81.00
2018-09-22T22:20:55.453Z,81.00
2018-09-22T22:23:25.674Z,80.90
2018-09-22T22:25:55.727Z,81.00
2018-09-22T22:28:25.823Z,80.90
2018-09-22T22:30:56.126Z,80.70
2018-09-22T22:33:26.251Z,81.20
2018-09-22T22:35:56.389Z,81.40
2018-09-22T22:38:26.526Z,81.80
2018-09-22T22:40:56.642Z,81.50
2018-09-22T22:43:27.165Z,81.40
2018-09-22T22:45:57.832Z,81.30
2018-09-22T22:48:28.244Z,81.50
2018-09-22T22:50:58.668Z,81.90
2018-09-22T22:53:30.053Z,81.30
2018-09-22T22:56:00.448Z,81.40
2018-09-22T22:58:30.918Z,81.70
2018-09-22T23:01:01.438Z,81.50
2018-09-22T23:03:31.924Z,81.60
2018-09-22T23:06:02.318Z,81.60
2018-09-22T23:08:32.711Z,81.80
2018-09-22T23:11:03.293Z,82.00
2018-09-22T23:13:33.754Z,81.90
2018-09-22T23:16:04.239Z,81.80
2018-09-22T23:18:34.766Z,82.10
2018-09-22T23:21:05.236Z,82.10
2018-09-22T23:23:35.754Z,82.00
2018-09-22T23:26:06.394Z,82.20
2018-09-22T23:28:36.963Z,82.30
2018-09-22T23:31:07.466Z,82.10
2018-09-22T23:33:37.940Z,82.30
2018-09-22T23:36:08.391Z,82.20
2018-09-22T23:38:38.947Z,82.40
2018-09-22T23:41:10.530Z,82.50
2018-09-22T23:43:40.910Z,82.70
2018-09-22T23:46:11.754Z,82.80
2018-09-22T23:48:43.491Z,82.70
2018-09-22T23:51:14.447Z,83.10
2018-09-22T23:53:44.825Z,82.80
2018-09-22T23:56:15.513Z,83.30
2018-09-22T23:58:46.117Z,83.00
